sensor_id;sensor_type;location;lat;lon;timestamp;P1;durP1;ratioP1;P2;durP2;ratioP2
68744;SDS011;73143;45.456;11.064;2024-03-02T00:02:07;6.40;;;2.30;;
68744;SDS011;73143;45.456;11.064;2024-03-02T00:04:46;7.50;;;2.20;;
68744;SDS011;73143;45.456;11.064;2024-03-02T00:07:27;6.70;;;2.00;;
68744;SDS011;73143;45.456;11.064;2024-03-02T00:10:10;10.90;;;2.70;;
68744;SDS011;73143;45.456;11.064;2024-03-02T00:12:50;11.60;;;2.40;;
68744;SDS011;73143;45.456;11.064;2024-03-02T00:15:42;9.90;;;2.40;;
68744;SDS011;73143;45.456;11.064;2024-03-02T00:18:27;6.80;;;2.00;;
68744;SDS011;73143;45.456;11.064;2024-03-02T00:21:08;6.00;;;2.40;;
68744;SDS011;73143;45.456;11.064;2024-03-02T00:23:53;7.20;;;2.20;;
68744;SDS011;73143;45.456;11.064;2024-03-02T00:26:31;4.70;;;2.00;;
68744;SDS011;73143;45.456;11.064;2024-03-02T00:29:11;6.10;;;1.90;;
68744;SDS011;73143;45.456;11.064;2024-03-02T00:31:51;9.10;;;2.00;;
68744;SDS011;73143;45.456;11.064;2024-03-02T00:34:29;8.10;;;1.90;;
68744;SDS011;73143;45.456;11.064;2024-03-02T00:37:06;3.90;;;1.70;;
68744;SDS011;73143;45.456;11.064;2024-03-02T00:39:50;6.40;;;1.80;;
68744;SDS011;73143;45.456;11.064;2024-03-02T00:42:27;9.30;;;1.70;;
68744;SDS011;73143;45.456;11.064;2024-03-02T00:45:12;6.20;;;1.60;;
68744;SDS011;73143;45.456;11.064;2024-03-02T00:47:48;7.90;;;1.50;;
68744;SDS011;73143;45.456;11.064;2024-03-02T00:50:25;3.30;;;1.40;;
68744;SDS011;73143;45.456;11.064;2024-03-02T00:53:04;5.80;;;1.70;;
68744;SDS011;73143;45.456;11.064;2024-03-02T00:55:44;6.10;;;1.70;;
68744;SDS011;73143;45.456;11.064;2024-03-02T00:58:20;6.10;;;2.40;;
68744;SDS011;73143;45.456;11.064;2024-03-02T01:00:58;6.40;;;1.90;;
68744;SDS011;73143;45.456;11.064;2024-03-02T01:03:35;6.50;;;1.80;;
68744;SDS011;73143;45.456;11.064;2024-03-02T01:06:14;4.40;;;1.60;;
68744;SDS011;73143;45.456;11.064;2024-03-02T01:08:51;10.10;;;1.80;;
68744;SDS011;73143;45.456;11.064;2024-03-02T01:11:28;6.90;;;1.60;;
68744;SDS011;73143;45.456;11.064;2024-03-02T01:14:05;5.10;;;1.60;;
68744;SDS011;73143;45.456;11.064;2024-03-02T01:16:41;7.70;;;1.60;;
68744;SDS011;73143;45.456;11.064;2024-03-02T01:19:21;6.30;;;1.90;;
68744;SDS011;73143;45.456;11.064;2024-03-02T01:21:59;5.50;;;1.70;;
68744;SDS011;73143;45.456;11.064;2024-03-02T01:24:35;4.80;;;1.70;;
68744;SDS011;73143;45.456;11.064;2024-03-02T01:27:12;7.30;;;1.50;;
68744;SDS011;73143;45.456;11.064;2024-03-02T01:29:49;5.80;;;1.30;;
68744;SDS011;73143;45.456;11.064;2024-03-02T01:32:29;5.50;;;1.60;;
68744;SDS011;73143;45.456;11.064;2024-03-02T01:35:07;3.30;;;1.70;;
68744;SDS011;73143;45.456;11.064;2024-03-02T01:37:46;3.80;;;1.50;;
68744;SDS011;73143;45.456;11.064;2024-03-02T01:40:23;5.80;;;1.60;;
68744;SDS011;73143;45.456;11.064;2024-03-02T01:43:00;3.80;;;1.50;;
68744;SDS011;73143;45.456;11.064;2024-03-02T01:45:38;5.80;;;1.50;;
68744;SDS011;73143;45.456;11.064;2024-03-02T01:48:16;6.10;;;1.60;;
68744;SDS011;73143;45.456;11.064;2024-03-02T01:50:54;4.00;;;1.20;;
68744;SDS011;73143;45.456;11.064;2024-03-02T01:53:31;4.10;;;1.20;;
68744;SDS011;73143;45.456;11.064;2024-03-02T01:56:12;6.60;;;1.40;;
68744;SDS011;73143;45.456;11.064;2024-03-02T01:58:49;5.50;;;1.60;;
68744;SDS011;73143;45.456;11.064;2024-03-02T02:01:25;4.30;;;1.30;;
68744;SDS011;73143;45.456;11.064;2024-03-02T02:04:03;6.00;;;1.70;;
68744;SDS011;73143;45.456;11.064;2024-03-02T02:06:39;2.80;;;1.30;;
68744;SDS011;73143;45.456;11.064;2024-03-02T02:09:18;7.00;;;1.40;;
68744;SDS011;73143;45.456;11.064;2024-03-02T02:11:56;6.60;;;1.60;;
68744;SDS011;73143;45.456;11.064;2024-03-02T02:14:32;5.00;;;1.60;;
68744;SDS011;73143;45.456;11.064;2024-03-02T02:17:09;5.00;;;1.40;;
68744;SDS011;73143;45.456;11.064;2024-03-02T02:19:48;4.30;;;1.20;;
68744;SDS011;73143;45.456;11.064;2024-03-02T02:22:27;9.10;;;1.70;;
68744;SDS011;73143;45.456;11.064;2024-03-02T02:25:04;5.70;;;1.10;;
68744;SDS011;73143;45.456;11.064;2024-03-02T02:27:45;3.90;;;1.60;;
68744;SDS011;73143;45.456;11.064;2024-03-02T02:30:24;3.20;;;1.20;;
68744;SDS011;73143;45.456;11.064;2024-03-02T02:33:02;3.90;;;1.60;;
68744;SDS011;73143;45.456;11.064;2024-03-02T02:35:40;5.20;;;1.30;;
68744;SDS011;73143;45.456;11.064;2024-03-02T02:38:17;5.40;;;1.20;;
68744;SDS011;73143;45.456;11.064;2024-03-02T02:40:55;3.10;;;1.50;;
68744;SDS011;73143;45.456;11.064;2024-03-02T02:43:32;4.60;;;1.40;;
68744;SDS011;73143;45.456;11.064;2024-03-02T02:46:09;4.70;;;1.30;;
68744;SDS011;73143;45.456;11.064;2024-03-02T02:48:46;4.40;;;1.30;;
68744;SDS011;73143;45.456;11.064;2024-03-02T02:51:24;4.70;;;1.40;;
68744;SDS011;73143;45.456;11.064;2024-03-02T02:54:00;5.60;;;1.80;;
68744;SDS011;73143;45.456;11.064;2024-03-02T02:56:37;8.10;;;1.70;;
68744;SDS011;73143;45.456;11.064;2024-03-02T02:59:14;7.50;;;2.10;;
68744;SDS011;73143;45.456;11.064;2024-03-02T03:01:51;5.40;;;1.70;;
68744;SDS011;73143;45.456;11.064;2024-03-02T03:04:29;7.00;;;1.50;;
68744;SDS011;73143;45.456;11.064;2024-03-02T03:07:06;6.10;;;1.70;;
68744;SDS011;73143;45.456;11.064;2024-03-02T03:09:42;4.70;;;2.00;;
68744;SDS011;73143;45.456;11.064;2024-03-02T03:12:19;6.30;;;1.70;;
68744;SDS011;73143;45.456;11.064;2024-03-02T03:14:57;4.80;;;1.50;;
68744;SDS011;73143;45.456;11.064;2024-03-02T03:17:33;6.60;;;1.60;;
68744;SDS011;73143;45.456;11.064;2024-03-02T03:20:12;5.80;;;1.60;;
68744;SDS011;73143;45.456;11.064;2024-03-02T03:22:48;7.10;;;1.60;;
68744;SDS011;73143;45.456;11.064;2024-03-02T03:25:28;4.80;;;1.80;;
68744;SDS011;73143;45.456;11.064;2024-03-02T03:28:06;5.00;;;1.50;;
68744;SDS011;73143;45.456;11.064;2024-03-02T03:30:43;7.20;;;1.90;;
68744;SDS011;73143;45.456;11.064;2024-03-02T03:33:20;5.70;;;1.50;;
68744;SDS011;73143;45.456;11.064;2024-03-02T03:35:57;10.00;;;1.70;;
68744;SDS011;73143;45.456;11.064;2024-03-02T03:38:35;5.10;;;2.00;;
68744;SDS011;73143;45.456;11.064;2024-03-02T03:41:12;6.20;;;1.60;;
68744;SDS011;73143;45.456;11.064;2024-03-02T03:43:48;5.90;;;1.50;;
68744;SDS011;73143;45.456;11.064;2024-03-02T03:46:25;4.60;;;1.30;;
68744;SDS011;73143;45.456;11.064;2024-03-02T03:49:02;5.00;;;1.60;;
68744;SDS011;73143;45.456;11.064;2024-03-02T03:51:39;6.60;;;1.80;;
68744;SDS011;73143;45.456;11.064;2024-03-02T03:54:16;3.30;;;1.50;;
68744;SDS011;73143;45.456;11.064;2024-03-02T03:56:54;6.20;;;1.70;;
68744;SDS011;73143;45.456;11.064;2024-03-02T03:59:32;10.00;;;1.40;;
68744;SDS011;73143;45.456;11.064;2024-03-02T04:02:08;6.70;;;1.40;;
68744;SDS011;73143;45.456;11.064;2024-03-02T04:04:45;6.80;;;1.60;;
68744;SDS011;73143;45.456;11.064;2024-03-02T04:07:21;5.30;;;1.60;;
68744;SDS011;73143;45.456;11.064;2024-03-02T04:09:59;4.30;;;1.40;;
68744;SDS011;73143;45.456;11.064;2024-03-02T04:12:36;8.40;;;1.50;;
68744;SDS011;73143;45.456;11.064;2024-03-02T04:15:14;5.50;;;1.80;;
68744;SDS011;73143;45.456;11.064;2024-03-02T04:17:52;8.50;;;1.70;;
68744;SDS011;73143;45.456;11.064;2024-03-02T04:20:29;6.80;;;1.80;;
68744;SDS011;73143;45.456;11.064;2024-03-02T04:23:08;9.40;;;1.90;;
68744;SDS011;73143;45.456;11.064;2024-03-02T04:25:44;9.60;;;2.80;;
68744;SDS011;73143;45.456;11.064;2024-03-02T04:28:22;6.00;;;2.20;;
68744;SDS011;73143;45.456;11.064;2024-03-02T04:30:59;7.80;;;1.80;;
68744;SDS011;73143;45.456;11.064;2024-03-02T04:33:36;9.40;;;2.50;;
68744;SDS011;73143;45.456;11.064;2024-03-02T04:36:13;10.00;;;2.40;;
68744;SDS011;73143;45.456;11.064;2024-03-02T04:38:50;10.00;;;2.10;;
68744;SDS011;73143;45.456;11.064;2024-03-02T04:41:26;7.20;;;2.00;;
68744;SDS011;73143;45.456;11.064;2024-03-02T04:44:03;10.10;;;2.70;;
68744;SDS011;73143;45.456;11.064;2024-03-02T04:46:42;6.10;;;2.00;;
68744;SDS011;73143;45.456;11.064;2024-03-02T04:49:18;8.30;;;2.00;;
68744;SDS011;73143;45.456;11.064;2024-03-02T04:51:55;6.80;;;1.90;;
68744;SDS011;73143;45.456;11.064;2024-03-02T04:54:32;7.20;;;1.90;;
68744;SDS011;73143;45.456;11.064;2024-03-02T04:57:29;5.80;;;1.70;;
68744;SDS011;73143;45.456;11.064;2024-03-02T05:00:13;4.90;;;1.70;;
68744;SDS011;73143;45.456;11.064;2024-03-02T05:02:51;4.30;;;1.50;;
68744;SDS011;73143;45.456;11.064;2024-03-02T05:05:30;6.30;;;1.90;;
68744;SDS011;73143;45.456;11.064;2024-03-02T05:08:09;7.30;;;1.80;;
68744;SDS011;73143;45.456;11.064;2024-03-02T05:10:45;9.60;;;2.10;;
68744;SDS011;73143;45.456;11.064;2024-03-02T05:13:21;4.20;;;1.70;;
68744;SDS011;73143;45.456;11.064;2024-03-02T05:15:59;6.30;;;2.10;;
68744;SDS011;73143;45.456;11.064;2024-03-02T05:18:36;3.90;;;1.40;;
68744;SDS011;73143;45.456;11.064;2024-03-02T05:21:12;6.90;;;1.90;;
68744;SDS011;73143;45.456;11.064;2024-03-02T05:23:49;6.80;;;1.60;;
68744;SDS011;73143;45.456;11.064;2024-03-02T05:26:26;7.20;;;2.00;;
68744;SDS011;73143;45.456;11.064;2024-03-02T05:29:03;7.50;;;1.60;;
68744;SDS011;73143;45.456;11.064;2024-03-02T05:31:43;3.40;;;1.40;;
68744;SDS011;73143;45.456;11.064;2024-03-02T05:34:20;4.10;;;1.50;;
68744;SDS011;73143;45.456;11.064;2024-03-02T05:36:58;5.60;;;2.10;;
68744;SDS011;73143;45.456;11.064;2024-03-02T05:39:35;6.60;;;1.80;;
68744;SDS011;73143;45.456;11.064;2024-03-02T05:42:12;6.00;;;2.00;;
68744;SDS011;73143;45.456;11.064;2024-03-02T05:44:49;8.00;;;2.00;;
68744;SDS011;73143;45.456;11.064;2024-03-02T05:47:26;6.60;;;1.80;;
68744;SDS011;73143;45.456;11.064;2024-03-02T05:50:03;4.50;;;1.40;;
68744;SDS011;73143;45.456;11.064;2024-03-02T05:52:43;4.50;;;1.90;;
68744;SDS011;73143;45.456;11.064;2024-03-02T05:55:20;4.30;;;1.60;;
68744;SDS011;73143;45.456;11.064;2024-03-02T05:57:57;4.80;;;1.40;;
68744;SDS011;73143;45.456;11.064;2024-03-02T06:00:49;5.90;;;1.80;;
68744;SDS011;73143;45.456;11.064;2024-03-02T06:03:26;5.50;;;1.80;;
68744;SDS011;73143;45.456;11.064;2024-03-02T06:06:07;6.10;;;1.80;;
68744;SDS011;73143;45.456;11.064;2024-03-02T06:08:45;8.60;;;1.90;;
68744;SDS011;73143;45.456;11.064;2024-03-02T06:11:23;9.30;;;1.70;;
68744;SDS011;73143;45.456;11.064;2024-03-02T06:14:00;5.70;;;1.50;;
68744;SDS011;73143;45.456;11.064;2024-03-02T06:16:37;4.10;;;1.60;;
68744;SDS011;73143;45.456;11.064;2024-03-02T06:19:15;5.80;;;1.80;;
68744;SDS011;73143;45.456;11.064;2024-03-02T06:21:53;5.90;;;1.80;;
68744;SDS011;73143;45.456;11.064;2024-03-02T06:24:30;8.30;;;1.90;;
68744;SDS011;73143;45.456;11.064;2024-03-02T06:27:08;6.80;;;1.80;;
68744;SDS011;73143;45.456;11.064;2024-03-02T06:29:45;4.80;;;1.70;;
68744;SDS011;73143;45.456;11.064;2024-03-02T06:32:22;6.90;;;1.70;;
68744;SDS011;73143;45.456;11.064;2024-03-02T06:34:59;6.60;;;1.90;;
68744;SDS011;73143;45.456;11.064;2024-03-02T06:37:37;8.90;;;2.00;;
68744;SDS011;73143;45.456;11.064;2024-03-02T06:40:18;4.60;;;1.90;;
68744;SDS011;73143;45.456;11.064;2024-03-02T06:42:56;9.00;;;1.90;;
68744;SDS011;73143;45.456;11.064;2024-03-02T06:45:40;5.00;;;1.70;;
68744;SDS011;73143;45.456;11.064;2024-03-02T06:48:17;7.00;;;1.70;;
68744;SDS011;73143;45.456;11.064;2024-03-02T06:50:54;6.60;;;1.60;;
68744;SDS011;73143;45.456;11.064;2024-03-02T06:53:32;4.10;;;1.60;;
68744;SDS011;73143;45.456;11.064;2024-03-02T06:56:11;3.90;;;1.60;;
68744;SDS011;73143;45.456;11.064;2024-03-02T06:58:48;4.50;;;1.50;;
68744;SDS011;73143;45.456;11.064;2024-03-02T07:01:25;3.30;;;1.60;;
68744;SDS011;73143;45.456;11.064;2024-03-02T07:04:03;7.00;;;2.00;;
68744;SDS011;73143;45.456;11.064;2024-03-02T07:06:41;6.40;;;1.60;;
68744;SDS011;73143;45.456;11.064;2024-03-02T07:09:18;8.30;;;2.00;;
68744;SDS011;73143;45.456;11.064;2024-03-02T07:11:54;5.80;;;1.70;;
68744;SDS011;73143;45.456;11.064;2024-03-02T07:14:31;2.80;;;1.40;;
68744;SDS011;73143;45.456;11.064;2024-03-02T07:17:24;3.30;;;1.40;;
68744;SDS011;73143;45.456;11.064;2024-03-02T07:20:01;4.70;;;1.40;;
68744;SDS011;73143;45.456;11.064;2024-03-02T07:22:43;5.50;;;1.80;;
68744;SDS011;73143;45.456;11.064;2024-03-02T07:25:21;3.90;;;1.30;;
68744;SDS011;73143;45.456;11.064;2024-03-02T07:28:05;5.10;;;1.40;;
68744;SDS011;73143;45.456;11.064;2024-03-02T07:30:43;2.80;;;1.30;;
68744;SDS011;73143;45.456;11.064;2024-03-02T07:33:20;3.30;;;1.40;;
68744;SDS011;73143;45.456;11.064;2024-03-02T07:35:56;5.60;;;1.40;;
68744;SDS011;73143;45.456;11.064;2024-03-02T07:38:35;3.10;;;1.10;;
68744;SDS011;73143;45.456;11.064;2024-03-02T07:41:12;2.80;;;1.50;;
68744;SDS011;73143;45.456;11.064;2024-03-02T07:43:48;4.50;;;1.70;;
68744;SDS011;73143;45.456;11.064;2024-03-02T07:46:25;2.30;;;1.10;;
68744;SDS011;73143;45.456;11.064;2024-03-02T07:49:01;1.80;;;1.30;;
68744;SDS011;73143;45.456;11.064;2024-03-02T07:51:39;4.40;;;1.30;;
68744;SDS011;73143;45.456;11.064;2024-03-02T07:54:16;4.20;;;1.90;;
68744;SDS011;73143;45.456;11.064;2024-03-02T07:56:53;3.80;;;1.40;;
68744;SDS011;73143;45.456;11.064;2024-03-02T07:59:30;4.30;;;1.60;;
68744;SDS011;73143;45.456;11.064;2024-03-02T08:02:08;2.40;;;1.20;;
68744;SDS011;73143;45.456;11.064;2024-03-02T08:04:47;3.10;;;1.50;;
68744;SDS011;73143;45.456;11.064;2024-03-02T08:07:24;4.40;;;1.40;;
68744;SDS011;73143;45.456;11.064;2024-03-02T08:10:01;4.00;;;1.80;;
68744;SDS011;73143;45.456;11.064;2024-03-02T08:12:46;4.40;;;1.40;;
68744;SDS011;73143;45.456;11.064;2024-03-02T08:15:23;3.50;;;1.30;;
68744;SDS011;73143;45.456;11.064;2024-03-02T08:17:59;4.10;;;1.50;;
68744;SDS011;73143;45.456;11.064;2024-03-02T08:20:38;4.00;;;1.60;;
68744;SDS011;73143;45.456;11.064;2024-03-02T08:23:17;4.60;;;1.60;;
68744;SDS011;73143;45.456;11.064;2024-03-02T08:25:55;8.00;;;4.00;;
68744;SDS011;73143;45.456;11.064;2024-03-02T08:28:32;4.00;;;1.60;;
68744;SDS011;73143;45.456;11.064;2024-03-02T08:31:11;6.60;;;1.40;;
68744;SDS011;73143;45.456;11.064;2024-03-02T08:33:49;4.00;;;1.90;;
68744;SDS011;73143;45.456;11.064;2024-03-02T08:36:25;5.00;;;1.60;;
68744;SDS011;73143;45.456;11.064;2024-03-02T08:39:02;2.70;;;1.60;;
68744;SDS011;73143;45.456;11.064;2024-03-02T08:41:48;2.50;;;1.30;;
68744;SDS011;73143;45.456;11.064;2024-03-02T08:44:25;6.00;;;1.30;;
68744;SDS011;73143;45.456;11.064;2024-03-02T08:47:03;3.60;;;1.70;;
68744;SDS011;73143;45.456;11.064;2024-03-02T08:49:41;3.90;;;1.40;;
68744;SDS011;73143;45.456;11.064;2024-03-02T08:52:17;3.30;;;1.30;;
68744;SDS011;73143;45.456;11.064;2024-03-02T08:54:54;2.80;;;1.80;;
68744;SDS011;73143;45.456;11.064;2024-03-02T08:57:31;3.60;;;1.40;;
68744;SDS011;73143;45.456;11.064;2024-03-02T09:00:13;6.00;;;1.70;;
68744;SDS011;73143;45.456;11.064;2024-03-02T09:02:51;2.70;;;1.60;;
68744;SDS011;73143;45.456;11.064;2024-03-02T09:05:28;4.50;;;1.50;;
68744;SDS011;73143;45.456;11.064;2024-03-02T09:08:07;5.00;;;1.70;;
68744;SDS011;73143;45.456;11.064;2024-03-02T09:10:45;4.70;;;1.60;;
68744;SDS011;73143;45.456;11.064;2024-03-02T09:13:22;5.40;;;1.70;;
68744;SDS011;73143;45.456;11.064;2024-03-02T09:15:59;4.00;;;1.40;;
68744;SDS011;73143;45.456;11.064;2024-03-02T09:18:36;4.70;;;1.80;;
68744;SDS011;73143;45.456;11.064;2024-03-02T09:21:14;4.20;;;1.50;;
68744;SDS011;73143;45.456;11.064;2024-03-02T09:23:51;4.70;;;1.90;;
68744;SDS011;73143;45.456;11.064;2024-03-02T09:26:27;4.10;;;1.70;;
68744;SDS011;73143;45.456;11.064;2024-03-02T09:29:04;6.10;;;1.80;;
68744;SDS011;73143;45.456;11.064;2024-03-02T09:31:44;4.70;;;1.90;;
68744;SDS011;73143;45.456;11.064;2024-03-02T09:34:23;6.10;;;2.10;;
68744;SDS011;73143;45.456;11.064;2024-03-02T09:37:00;4.40;;;1.60;;
68744;SDS011;73143;45.456;11.064;2024-03-02T09:39:38;3.60;;;1.40;;
68744;SDS011;73143;45.456;11.064;2024-03-02T09:42:18;4.50;;;1.60;;
68744;SDS011;73143;45.456;11.064;2024-03-02T09:44:56;4.70;;;1.80;;
68744;SDS011;73143;45.456;11.064;2024-03-02T09:47:34;5.50;;;2.00;;
68744;SDS011;73143;45.456;11.064;2024-03-02T09:50:13;4.60;;;1.60;;
68744;SDS011;73143;45.456;11.064;2024-03-02T09:52:52;6.10;;;2.10;;
68744;SDS011;73143;45.456;11.064;2024-03-02T09:55:29;3.30;;;1.50;;
68744;SDS011;73143;45.456;11.064;2024-03-02T09:58:05;3.00;;;1.70;;
68744;SDS011;73143;45.456;11.064;2024-03-02T10:00:42;4.70;;;1.60;;
68744;SDS011;73143;45.456;11.064;2024-03-02T10:03:22;4.40;;;1.80;;
68744;SDS011;73143;45.456;11.064;2024-03-02T10:06:23;3.60;;;2.00;;
68744;SDS011;73143;45.456;11.064;2024-03-02T10:09:01;3.50;;;1.90;;
68744;SDS011;73143;45.456;11.064;2024-03-02T10:11:38;4.20;;;2.00;;
68744;SDS011;73143;45.456;11.064;2024-03-02T10:14:16;3.00;;;1.90;;
68744;SDS011;73143;45.456;11.064;2024-03-02T10:16:52;4.30;;;2.00;;
68744;SDS011;73143;45.456;11.064;2024-03-02T10:19:35;4.10;;;1.80;;
68744;SDS011;73143;45.456;11.064;2024-03-02T10:22:14;5.60;;;1.90;;
68744;SDS011;73143;45.456;11.064;2024-03-02T10:24:50;5.70;;;1.70;;
68744;SDS011;73143;45.456;11.064;2024-03-02T10:27:30;2.60;;;1.50;;
68744;SDS011;73143;45.456;11.064;2024-03-02T10:30:14;3.20;;;1.50;;
68744;SDS011;73143;45.456;11.064;2024-03-02T10:32:54;2.90;;;1.50;;
68744;SDS011;73143;45.456;11.064;2024-03-02T10:35:31;5.40;;;1.70;;
68744;SDS011;73143;45.456;11.064;2024-03-02T10:38:13;6.30;;;1.90;;
68744;SDS011;73143;45.456;11.064;2024-03-02T10:40:51;6.90;;;2.20;;
68744;SDS011;73143;45.456;11.064;2024-03-02T10:43:33;6.10;;;1.90;;
68744;SDS011;73143;45.456;11.064;2024-03-02T10:46:12;3.90;;;1.90;;
68744;SDS011;73143;45.456;11.064;2024-03-02T10:48:50;3.40;;;1.60;;
68744;SDS011;73143;45.456;11.064;2024-03-02T10:51:33;4.20;;;1.70;;
68744;SDS011;73143;45.456;11.064;2024-03-02T10:54:10;4.10;;;1.90;;
68744;SDS011;73143;45.456;11.064;2024-03-02T10:56:48;5.60;;;1.60;;
68744;SDS011;73143;45.456;11.064;2024-03-02T10:59:32;5.70;;;1.70;;
68744;SDS011;73143;45.456;11.064;2024-03-02T11:02:14;3.10;;;1.70;;
68744;SDS011;73143;45.456;11.064;2024-03-02T11:04:51;5.00;;;1.80;;
68744;SDS011;73143;45.456;11.064;2024-03-02T11:07:35;4.00;;;1.70;;
68744;SDS011;73143;45.456;11.064;2024-03-02T11:10:14;7.30;;;3.30;;
68744;SDS011;73143;45.456;11.064;2024-03-02T11:12:59;7.80;;;3.30;;
68744;SDS011;73143;45.456;11.064;2024-03-02T11:15:38;4.00;;;2.30;;
68744;SDS011;73143;45.456;11.064;2024-03-02T11:18:18;9.20;;;4.00;;
68744;SDS011;73143;45.456;11.064;2024-03-02T11:20:56;8.60;;;4.00;;
68744;SDS011;73143;45.456;11.064;2024-03-02T11:23:36;5.30;;;1.90;;
68744;SDS011;73143;45.456;11.064;2024-03-02T11:26:31;6.60;;;2.20;;
68744;SDS011;73143;45.456;11.064;2024-03-02T11:29:46;7.30;;;3.20;;
68744;SDS011;73143;45.456;11.064;2024-03-02T11:32:24;5.90;;;2.10;;
68744;SDS011;73143;45.456;11.064;2024-03-02T11:35:05;4.40;;;2.00;;
68744;SDS011;73143;45.456;11.064;2024-03-02T11:37:42;8.30;;;2.40;;
68744;SDS011;73143;45.456;11.064;2024-03-02T11:40:24;6.50;;;2.80;;
68744;SDS011;73143;45.456;11.064;2024-03-02T11:43:00;5.80;;;2.50;;
68744;SDS011;73143;45.456;11.064;2024-03-02T11:45:40;6.90;;;2.40;;
68744;SDS011;73143;45.456;11.064;2024-03-02T11:48:22;4.10;;;2.20;;
68744;SDS011;73143;45.456;11.064;2024-03-02T11:51:02;7.00;;;2.50;;
68744;SDS011;73143;45.456;11.064;2024-03-02T11:53:41;5.90;;;2.40;;
68744;SDS011;73143;45.456;11.064;2024-03-02T11:56:18;5.60;;;2.50;;
68744;SDS011;73143;45.456;11.064;2024-03-02T11:58:55;5.90;;;2.70;;
68744;SDS011;73143;45.456;11.064;2024-03-02T12:01:32;4.10;;;2.40;;
68744;SDS011;73143;45.456;11.064;2024-03-02T12:04:10;5.00;;;2.60;;
68744;SDS011;73143;45.456;11.064;2024-03-02T12:06:48;5.60;;;3.00;;
68744;SDS011;73143;45.456;11.064;2024-03-02T12:09:35;6.10;;;2.90;;
68744;SDS011;73143;45.456;11.064;2024-03-02T12:12:13;4.60;;;2.70;;
68744;SDS011;73143;45.456;11.064;2024-03-02T12:14:58;5.80;;;3.40;;
68744;SDS011;73143;45.456;11.064;2024-03-02T12:17:34;4.50;;;2.90;;
68744;SDS011;73143;45.456;11.064;2024-03-02T12:20:14;6.40;;;3.20;;
68744;SDS011;73143;45.456;11.064;2024-03-02T12:22:52;5.60;;;3.30;;
68744;SDS011;73143;45.456;11.064;2024-03-02T12:25:31;6.10;;;3.00;;
68744;SDS011;73143;45.456;11.064;2024-03-02T12:28:10;5.80;;;2.80;;
68744;SDS011;73143;45.456;11.064;2024-03-02T12:30:47;6.10;;;2.90;;
68744;SDS011;73143;45.456;11.064;2024-03-02T12:33:27;5.20;;;3.20;;
68744;SDS011;73143;45.456;11.064;2024-03-02T12:36:04;6.10;;;3.90;;
68744;SDS011;73143;45.456;11.064;2024-03-02T12:38:47;6.10;;;3.20;;
68744;SDS011;73143;45.456;11.064;2024-03-02T12:41:26;6.30;;;3.80;;
68744;SDS011;73143;45.456;11.064;2024-03-02T12:44:03;5.80;;;3.10;;
68744;SDS011;73143;45.456;11.064;2024-03-02T12:46:40;5.30;;;3.00;;
68744;SDS011;73143;45.456;11.064;2024-03-02T12:49:21;7.10;;;3.50;;
68744;SDS011;73143;45.456;11.064;2024-03-02T12:52:00;7.80;;;3.20;;
68744;SDS011;73143;45.456;11.064;2024-03-02T12:54:38;8.40;;;3.30;;
68744;SDS011;73143;45.456;11.064;2024-03-02T12:57:28;6.30;;;3.30;;
68744;SDS011;73143;45.456;11.064;2024-03-02T13:00:08;7.60;;;4.10;;
68744;SDS011;73143;45.456;11.064;2024-03-02T13:02:52;8.50;;;3.30;;
68744;SDS011;73143;45.456;11.064;2024-03-02T13:05:35;8.50;;;3.50;;
68744;SDS011;73143;45.456;11.064;2024-03-02T13:08:16;7.20;;;3.30;;
68744;SDS011;73143;45.456;11.064;2024-03-02T13:10:53;5.90;;;2.90;;
68744;SDS011;73143;45.456;11.064;2024-03-02T13:13:32;6.60;;;3.60;;
68744;SDS011;73143;45.456;11.064;2024-03-02T13:16:12;5.40;;;3.20;;
68744;SDS011;73143;45.456;11.064;2024-03-02T13:18:53;6.10;;;3.10;;
68744;SDS011;73143;45.456;11.064;2024-03-02T13:21:29;5.30;;;2.40;;
68744;SDS011;73143;45.456;11.064;2024-03-02T13:24:09;4.70;;;2.60;;
68744;SDS011;73143;45.456;11.064;2024-03-02T13:26:46;5.60;;;2.90;;
68744;SDS011;73143;45.456;11.064;2024-03-02T13:29:26;5.20;;;2.80;;
68744;SDS011;73143;45.456;11.064;2024-03-02T13:32:05;7.60;;;3.20;;
68744;SDS011;73143;45.456;11.064;2024-03-02T13:34:43;4.50;;;2.40;;
68744;SDS011;73143;45.456;11.064;2024-03-02T13:37:20;4.30;;;2.00;;
68744;SDS011;73143;45.456;11.064;2024-03-02T13:39:57;4.10;;;2.10;;
68744;SDS011;73143;45.456;11.064;2024-03-02T13:42:36;5.20;;;2.10;;
68744;SDS011;73143;45.456;11.064;2024-03-02T13:45:12;4.30;;;2.60;;
68744;SDS011;73143;45.456;11.064;2024-03-02T13:47:51;5.90;;;2.50;;
68744;SDS011;73143;45.456;11.064;2024-03-02T13:50:27;3.90;;;2.50;;
68744;SDS011;73143;45.456;11.064;2024-03-02T13:53:04;4.50;;;2.30;;
68744;SDS011;73143;45.456;11.064;2024-03-02T13:55:42;5.30;;;2.40;;
68744;SDS011;73143;45.456;11.064;2024-03-02T13:58:20;6.30;;;2.30;;
68744;SDS011;73143;45.456;11.064;2024-03-02T14:00:57;5.30;;;2.50;;
68744;SDS011;73143;45.456;11.064;2024-03-02T14:03:36;5.00;;;2.90;;
68744;SDS011;73143;45.456;11.064;2024-03-02T14:06:13;5.20;;;2.30;;
68744;SDS011;73143;45.456;11.064;2024-03-02T14:08:50;3.80;;;2.30;;
68744;SDS011;73143;45.456;11.064;2024-03-02T14:11:26;3.80;;;2.00;;
68744;SDS011;73143;45.456;11.064;2024-03-02T14:14:03;5.60;;;2.60;;
68744;SDS011;73143;45.456;11.064;2024-03-02T14:16:40;4.50;;;2.20;;
68744;SDS011;73143;45.456;11.064;2024-03-02T14:19:18;4.20;;;2.20;;
68744;SDS011;73143;45.456;11.064;2024-03-02T14:21:55;5.70;;;2.40;;
68744;SDS011;73143;45.456;11.064;2024-03-02T14:24:33;3.10;;;1.90;;
68744;SDS011;73143;45.456;11.064;2024-03-02T14:27:09;4.40;;;2.20;;
68744;SDS011;73143;45.456;11.064;2024-03-02T14:30:03;5.80;;;2.30;;
68744;SDS011;73143;45.456;11.064;2024-03-02T14:32:45;4.90;;;2.60;;
68744;SDS011;73143;45.456;11.064;2024-03-02T14:35:23;6.40;;;2.40;;
68744;SDS011;73143;45.456;11.064;2024-03-02T14:38:00;4.90;;;2.50;;
68744;SDS011;73143;45.456;11.064;2024-03-02T14:40:37;4.90;;;2.60;;
68744;SDS011;73143;45.456;11.064;2024-03-02T14:43:14;4.30;;;2.30;;
68744;SDS011;73143;45.456;11.064;2024-03-02T14:45:52;6.20;;;3.20;;
68744;SDS011;73143;45.456;11.064;2024-03-02T14:48:30;5.30;;;2.90;;
68744;SDS011;73143;45.456;11.064;2024-03-02T14:51:08;4.40;;;2.80;;
68744;SDS011;73143;45.456;11.064;2024-03-02T14:53:44;5.90;;;2.80;;
68744;SDS011;73143;45.456;11.064;2024-03-02T14:56:22;4.90;;;2.80;;
68744;SDS011;73143;45.456;11.064;2024-03-02T14:59:00;5.90;;;3.30;;
68744;SDS011;73143;45.456;11.064;2024-03-02T15:01:37;5.50;;;3.10;;
68744;SDS011;73143;45.456;11.064;2024-03-02T15:04:14;5.60;;;3.10;;
68744;SDS011;73143;45.456;11.064;2024-03-02T15:06:52;5.70;;;2.60;;
68744;SDS011;73143;45.456;11.064;2024-03-02T15:09:32;4.10;;;2.40;;
68744;SDS011;73143;45.456;11.064;2024-03-02T15:12:11;5.30;;;2.80;;
68744;SDS011;73143;45.456;11.064;2024-03-02T15:14:48;4.70;;;2.70;;
68744;SDS011;73143;45.456;11.064;2024-03-02T15:17:25;5.20;;;3.10;;
68744;SDS011;73143;45.456;11.064;2024-03-02T15:20:04;4.50;;;2.70;;
68744;SDS011;73143;45.456;11.064;2024-03-02T15:22:44;3.40;;;2.20;;
68744;SDS011;73143;45.456;11.064;2024-03-02T15:25:21;5.00;;;2.80;;
68744;SDS011;73143;45.456;11.064;2024-03-02T15:27:59;6.20;;;2.80;;
68744;SDS011;73143;45.456;11.064;2024-03-02T15:30:35;4.00;;;2.60;;
68744;SDS011;73143;45.456;11.064;2024-03-02T15:33:12;8.30;;;3.20;;
68744;SDS011;73143;45.456;11.064;2024-03-02T15:35:49;5.30;;;2.20;;
68744;SDS011;73143;45.456;11.064;2024-03-02T15:38:27;3.80;;;2.40;;
68744;SDS011;73143;45.456;11.064;2024-03-02T15:41:13;7.00;;;2.80;;